• Join FlightAware (Why Join?)
  • Login
  • US Flag 
02:06AM EDT


 

Airport Tracker/Info


-or-


 

Live Flight TrackerFlight Track Log ✈ CSJ405 ✈ 06-May-2013 ✈ KCDW - KROC

Flight Track Log - Related Links

Times and Time Zones

All times are in EDT time to prevent confusion due to time zone crossing. See the CSJ405 flight status page for this flight to view local times or setup timezone preferences in your user account.

Time Position Orientation Groundspeed Altitude Reporting Facility
EDT Latitude Longitude Course Direction KTS MPH feet Rate Location/Type
07:38PM 40.8000 -74.2833 180° South 101 116 3,500  Level New York TRACON
07:39PM 40.7833 -74.3000 217° Southwest 116 133 4,600 1,020 Climbing New York TRACON
07:40PM 40.7833 -74.3500 270° West 135 155 5,600 900 Climbing New York TRACON
07:41PM 40.8167 -74.3333 21° North 142 163 6,400 780 Climbing New York TRACON
07:42PM 40.8500 -74.3333 360° North 144 166 7,200 780 Climbing New York TRACON
07:43PM 40.8833 -74.3500 339° North 144 166 8,000 720 Climbing New York TRACON
07:44PM 40.9167 -74.3667 339° North 148 170 8,700 480 Climbing New York TRACON
07:45PM 40.9667 -74.3833 346° North 158 182 9,000 120 Climbing New York TRACON
07:45PM 41.0000 -74.4000 339° North 175 201 9,000 -60 Level New York TRACON
07:47PM 41.0309 -74.4453 346° North  Level Estimated
07:54PM 41.3301 -74.4854 314° West  Level FlightAware Approximate
07:55PM 41.3599 -74.5271 314° West  Level FlightAware Approximate
07:56PM 41.3896 -74.5688 314° West  Level FlightAware Approximate
07:57PM 41.4162 -74.6140 305° West  Level FlightAware Approximate
07:58PM 41.4411 -74.6611 305° West  Level FlightAware Approximate
07:59PM 41.4659 -74.7082 305° West  Level FlightAware Approximate
08:00PM 41.4908 -74.7554 305° West  Level FlightAware Approximate
08:01PM 41.5156 -74.8026 305° West  Level FlightAware Approximate
08:02PM 41.5404 -74.8499 305° West  Level FlightAware Approximate
08:03PM 41.5652 -74.8971 305° West  Level FlightAware Approximate
08:04PM 41.5877 -74.9464 301° West  Level FlightAware Approximate
08:05PM 41.6100 -74.9959 301° West  Level FlightAware Approximate
08:06PM 41.6323 -75.0454 301° West  Level FlightAware Approximate
08:07PM 41.6546 -75.0949 301° West  Level FlightAware Approximate
08:08PM 41.6768 -75.1444 301° West  Level FlightAware Approximate
08:09PM 41.6991 -75.1940 301° West  Level FlightAware Approximate
08:10PM 41.7220 -75.2430 307° West  Level FlightAware Approximate
08:11PM 41.7478 -75.2894 307° West  Level FlightAware Approximate
08:12PM 41.7737 -75.3358 307° West  Level FlightAware Approximate
08:13PM 41.7994 -75.3823 307° West  Level FlightAware Approximate
08:14PM 41.8206 -75.4328 299° West  Level FlightAware Approximate
08:15PM 41.8417 -75.4834 299° West  Level FlightAware Approximate
08:16PM 41.8628 -75.5340 299° West  Level FlightAware Approximate
08:17PM 41.8840 -75.5845 306° West  Level FlightAware Approximate
08:18PM 41.9093 -75.6315 306° West  Level FlightAware Approximate
08:19PM 41.9347 -75.6785 306° West  Level FlightAware Approximate
08:20PM 41.9600 -75.7255 306° West  Level FlightAware Approximate
08:21PM 41.9853 -75.7726 306° West  Level FlightAware Approximate
08:22PM 42.0095 -75.8208 302° West  Level FlightAware Approximate
08:23PM 42.0320 -75.8704 302° West  Level FlightAware Approximate
08:24PM 42.0546 -75.9200 301° West  Level FlightAware Approximate
08:25PM 42.0771 -75.9696 301° West  Level FlightAware Approximate
08:26PM 42.0994 -76.0194 301° West  Level FlightAware Approximate
08:27PM 42.1216 -76.0694 301° West  Level FlightAware Approximate
08:28PM 42.1438 -76.1194 301° West  Level FlightAware Approximate
08:29PM 42.1662 -76.1692 301° West  Level FlightAware Approximate
08:30PM 42.1887 -76.2189 301° West  Level FlightAware Approximate
08:31PM 42.2112 -76.2688 301° West  Level FlightAware Approximate
08:32PM 42.2336 -76.3186 301° West  Level FlightAware Approximate
08:33PM 42.2560 -76.3685 301° West  Level FlightAware Approximate
08:33PM 42.5347 -76.7056 297° West 175 201 8,000  Level Cleveland Center
08:34PM 42.2784 -76.4184 301° West  Level FlightAware Approximate
08:35PM 42.3007 -76.4684 298° West  Level FlightAware Approximate
08:35PM 42.5722 -76.7681 309° West 172 198 8,000  Level Cleveland Center
08:36PM 42.3213 -76.5198 298° West  Level FlightAware Approximate
08:36PM 42.6050 -76.8169 312° West 173 199 8,000  Level Cleveland Center
08:37PM 42.3418 -76.5711 298° West  Level FlightAware Approximate
08:37PM 42.6319 -76.8689 305° West 174 200 8,000  Level Cleveland Center
08:38PM 42.3624 -76.6226 298° West  Level FlightAware Approximate
08:38PM 42.6667 -76.9150 316° Northwest 175 201 8,000  Level Cleveland Center
08:39PM 42.3821 -76.6745 297° West  Level FlightAware Approximate
08:40PM 42.7242 -77.0189 307° West 173 199 8,000  Level Cleveland Center
08:42PM 42.7748 -77.1018 317° Northwest  Level Estimated
08:43PM 42.8183 -77.1750 317° Northwest 172 198 8,000  Level Cleveland Center
08:44PM 42.8492 -77.2272 309° West 170 196 8,000 -240 Level Cleveland Center
08:45PM 42.8800 -77.2794 309° West 176 203 7,600 -600 Descending Cleveland Center
08:46PM 42.9125 -77.3286 312° West 183 211 6,900 -720 Descending Cleveland Center
08:47PM 42.9453 -77.3839 309° West 185 213 6,200 -660 Descending Cleveland Center
08:48PM 42.9844 -77.4414 313° West 190 219 5,600 -840 Descending Cleveland Center
08:49PM 43.0214 -77.4964 313° West 198 228 4,600 -900 Descending Cleveland Center
08:51PM 43.0625 -77.6306 293° West 186 214 2,900 -780 Descending Cleveland Center
08:52PM 43.0703 -77.6928 280° West 160 184 2,300 -780 Descending Cleveland Center
08:53PM 43.1036 -77.6969 355° North 103 119 1,400 -900 Descending Cleveland Center
08:55PM 43.1167 -77.6667 312° West  Level FlightAware Approximate
09:02PM 43.1191 -77.6719 312° West  Level Estimated